createdAt,value
2024-02-14T00:00:27.717Z,8.24
2024-02-14T00:02:54.548Z,8.23
2024-02-14T00:05:21.980Z,8.21
2024-02-14T00:07:48.825Z,8.18
2024-02-14T00:10:15.688Z,8.17
2024-02-14T00:12:42.620Z,8.17
2024-02-14T00:15:10.117Z,8.17
2024-02-14T00:17:37.126Z,8.19
2024-02-14T00:20:05.730Z,8.20
2024-02-14T00:22:32.930Z,8.19
2024-02-14T00:24:59.858Z,8.17
2024-02-14T00:27:27.965Z,8.18
2024-02-14T00:29:55.961Z,8.18
2024-02-14T00:32:23.689Z,8.19
2024-02-14T00:34:51.742Z,8.20
2024-02-14T00:37:21.217Z,8.20
2024-02-14T00:39:50.160Z,8.19
2024-02-14T00:42:17.690Z,8.20
2024-02-14T00:44:44.476Z,8.19
2024-02-14T00:47:11.488Z,8.17
2024-02-14T00:49:40.452Z,8.16
2024-02-14T00:52:07.907Z,8.16
2024-02-14T00:54:34.663Z,8.16
2024-02-14T00:57:01.585Z,8.16
2024-02-14T00:59:28.824Z,8.14
2024-02-14T01:01:55.600Z,8.12
2024-02-14T01:04:22.390Z,8.12
2024-02-14T01:06:50.955Z,8.15
2024-02-14T01:09:18.609Z,8.20
2024-02-14T01:11:46.222Z,8.18
2024-02-14T01:14:15.367Z,8.14
2024-02-14T01:16:46.783Z,8.08
2024-02-14T01:19:15.437Z,8.08
2024-02-14T01:21:42.888Z,8.09
2024-02-14T01:24:10.409Z,8.12
2024-02-14T01:26:37.404Z,8.14
2024-02-14T01:29:06.993Z,8.15
2024-02-14T01:31:37.157Z,8.17
2024-02-14T01:34:04.257Z,8.17
2024-02-14T01:36:31.661Z,8.14
2024-02-14T01:39:17.225Z,8.09
2024-02-14T01:41:49.802Z,8.04
2024-02-14T01:44:17.941Z,8.03
2024-02-14T01:46:45.877Z,8.02
2024-02-14T01:49:13.622Z,8.02
2024-02-14T01:51:45.137Z,8.05
2024-02-14T01:54:14.031Z,8.08
2024-02-14T01:56:42.178Z,8.08
2024-02-14T01:59:10.508Z,8.07
2024-02-14T02:01:37.315Z,8.05
2024-02-14T02:04:05.665Z,8.05
2024-02-14T02:06:33.403Z,8.05
2024-02-14T02:09:01.748Z,8.07
2024-02-14T02:11:28.834Z,8.09
2024-02-14T02:13:56.478Z,8.12
2024-02-14T02:16:23.313Z,8.13
2024-02-14T02:18:51.099Z,8.15
2024-02-14T02:21:21.142Z,8.17
2024-02-14T02:23:48.425Z,8.21
2024-02-14T02:26:15.954Z,8.22
2024-02-14T02:28:44.136Z,8.23
2024-02-14T02:31:11.503Z,8.25
2024-02-14T02:33:38.901Z,8.25
2024-02-14T02:36:07.945Z,8.23
2024-02-14T02:38:35.212Z,8.20
2024-02-14T02:41:02.316Z,8.15
2024-02-14T02:43:29.659Z,8.10
2024-02-14T02:45:58.364Z,8.04
2024-02-14T02:48:25.299Z,7.98
2024-02-14T02:50:53.112Z,7.93
2024-02-14T02:53:20.520Z,7.89
2024-02-14T02:55:47.270Z,7.89
2024-02-14T02:58:15.024Z,7.89
2024-02-14T03:00:41.934Z,7.87
2024-02-14T03:03:10.085Z,7.85
2024-02-14T03:05:37.351Z,7.80
2024-02-14T03:08:04.396Z,7.75
2024-02-14T03:10:31.878Z,7.71
2024-02-14T03:12:58.675Z,7.71
2024-02-14T03:15:27.211Z,7.72
2024-02-14T03:17:54.155Z,7.73
2024-02-14T03:20:21.532Z,7.75
2024-02-14T03:22:49.430Z,7.76
2024-02-14T03:25:21.227Z,7.77
2024-02-14T03:27:50.929Z,7.77
2024-02-14T03:30:19.162Z,7.75
2024-02-14T03:32:48.043Z,7.73
2024-02-14T03:35:15.131Z,7.70
2024-02-14T03:37:43.878Z,7.70
2024-02-14T03:40:11.544Z,7.69
2024-02-14T03:42:41.316Z,7.67
2024-02-14T03:45:09.571Z,7.65
2024-02-14T03:47:41.002Z,7.63
2024-02-14T03:50:09.568Z,7.63
2024-02-14T03:52:36.678Z,7.60
2024-02-14T03:55:04.361Z,7.58
2024-02-14T03:57:31.249Z,7.55
2024-02-14T04:00:05.018Z,7.53
2024-02-14T04:02:40.641Z,7.51
2024-02-14T04:05:09.130Z,7.49
2024-02-14T04:07:36.205Z,7.45
2024-02-14T04:10:03.050Z,7.42
2024-02-14T04:12:29.888Z,7.38
2024-02-14T04:14:56.711Z,7.34
2024-02-14T04:17:24.007Z,7.30
2024-02-14T04:19:51.293Z,7.25
2024-02-14T04:22:18.120Z,7.24
2024-02-14T04:24:44.951Z,7.20
2024-02-14T04:27:11.692Z,7.18
2024-02-14T04:29:38.446Z,7.18
2024-02-14T04:32:05.441Z,7.17
2024-02-14T04:34:32.970Z,7.16
2024-02-14T04:36:59.882Z,7.14
2024-02-14T04:39:26.623Z,7.10
2024-02-14T04:42:01.047Z,7.07
2024-02-14T04:44:30.535Z,7.04
2024-02-14T04:46:59.485Z,7.02
2024-02-14T04:49:27.392Z,6.99
2024-02-14T04:51:54.365Z,6.95
2024-02-14T04:54:21.158Z,6.90
2024-02-14T04:56:51.480Z,6.87
2024-02-14T04:59:20.619Z,6.87
2024-02-14T05:01:47.526Z,6.89
2024-02-14T05:04:14.382Z,6.91
2024-02-14T05:06:41.536Z,6.93
2024-02-14T05:09:08.434Z,6.92
2024-02-14T05:11:35.649Z,6.92
2024-02-14T05:14:03.362Z,6.89
2024-02-14T05:16:30.466Z,6.86
2024-02-14T05:18:57.337Z,6.83
2024-02-14T05:21:24.255Z,6.81
2024-02-14T05:23:51.834Z,6.79
2024-02-14T05:26:18.736Z,6.77
2024-02-14T05:28:45.664Z,6.77
2024-02-14T05:31:12.336Z,6.76
2024-02-14T05:33:39.129Z,6.76
2024-02-14T05:36:07.317Z,6.73
2024-02-14T05:38:35.517Z,6.72
2024-02-14T05:41:02.956Z,6.75
2024-02-14T05:43:29.880Z,6.76
2024-02-14T05:45:56.711Z,6.77
2024-02-14T05:48:23.815Z,6.75
2024-02-14T05:50:50.943Z,6.72
2024-02-14T05:53:17.795Z,6.70
2024-02-14T05:55:44.823Z,6.69
2024-02-14T05:58:11.951Z,6.69
2024-02-14T06:00:39.849Z,6.67
2024-02-14T06:03:08.189Z,6.64
2024-02-14T06:05:35.987Z,6.64
2024-02-14T06:08:04.578Z,6.64
2024-02-14T06:10:31.542Z,6.64
2024-02-14T06:12:58.370Z,6.63
2024-02-14T06:15:25.217Z,6.62
2024-02-14T06:17:52.520Z,6.61
2024-02-14T06:20:19.801Z,6.62
2024-02-14T06:22:53.631Z,6.63
2024-02-14T06:25:28.313Z,6.65
2024-02-14T06:27:57.971Z,6.68
2024-02-14T06:30:25.762Z,6.69
2024-02-14T06:32:54.094Z,6.70
2024-02-14T06:35:22.131Z,6.66
2024-02-14T06:37:55.937Z,6.62
2024-02-14T06:40:31.039Z,6.59
2024-02-14T06:42:59.877Z,6.56
2024-02-14T06:45:28.959Z,6.55
2024-02-14T06:47:56.456Z,6.55
2024-02-14T06:50:23.527Z,6.56
2024-02-14T06:52:50.271Z,6.56
2024-02-14T06:55:17.046Z,6.57
2024-02-14T06:57:43.785Z,6.59
2024-02-14T07:00:11.838Z,6.61
2024-02-14T07:02:38.941Z,6.64
2024-02-14T07:05:08.552Z,6.66
2024-02-14T07:07:35.328Z,6.70
2024-02-14T07:10:02.638Z,6.75
2024-02-14T07:12:31.717Z,6.81
2024-02-14T07:14:58.695Z,6.87
2024-02-14T07:17:25.684Z,6.93
2024-02-14T07:19:52.758Z,6.99
2024-02-14T07:22:22.472Z,7.07
2024-02-14T07:24:49.457Z,7.14
2024-02-14T07:27:17.961Z,7.23
2024-02-14T07:29:46.233Z,7.31
2024-02-14T07:32:13.093Z,7.38
2024-02-14T07:34:43.536Z,7.45
2024-02-14T07:37:10.379Z,7.51
2024-02-14T07:39:37.334Z,7.59
2024-02-14T07:42:04.679Z,7.67
2024-02-14T07:44:32.591Z,7.77
2024-02-14T07:47:02.532Z,7.85
2024-02-14T07:49:32.093Z,7.94
2024-02-14T07:51:59.239Z,7.99
2024-02-14T07:54:26.206Z,8.05
2024-02-14T07:56:53.312Z,8.11
2024-02-14T07:59:21.820Z,8.17
2024-02-14T08:01:49.233Z,8.24
2024-02-14T08:04:17.256Z,8.29
2024-02-14T08:06:47.025Z,8.36
2024-02-14T08:09:14.049Z,8.45
2024-02-14T08:11:41.461Z,8.54
2024-02-14T08:14:08.365Z,8.63
2024-02-14T08:16:35.224Z,8.71
2024-02-14T08:19:04.191Z,8.79
2024-02-14T08:21:32.739Z,8.88
2024-02-14T08:24:01.352Z,9.01
2024-02-14T08:26:29.545Z,9.10
2024-02-14T08:28:56.690Z,9.18
2024-02-14T08:31:23.955Z,9.25
2024-02-14T08:33:51.471Z,9.33
2024-02-14T08:36:20.906Z,9.42
2024-02-14T08:38:48.428Z,9.50
2024-02-14T08:41:15.544Z,9.57
2024-02-14T08:43:45.930Z,9.66
2024-02-14T08:46:14.610Z,9.75
2024-02-14T08:48:48.113Z,9.84
2024-02-14T08:51:16.157Z,9.95
2024-02-14T08:53:46.602Z,10.02
2024-02-14T08:56:15.132Z,10.09
2024-02-14T08:58:42.541Z,10.15
2024-02-14T09:01:14.927Z,10.24
2024-02-14T09:03:50.538Z,10.35
2024-02-14T09:06:20.041Z,10.44
2024-02-14T09:08:48.292Z,10.51
2024-02-14T09:11:15.560Z,10.61
2024-02-14T09:13:42.724Z,10.69
2024-02-14T09:16:11.112Z,10.77
2024-02-14T09:18:38.776Z,10.86
2024-02-14T09:21:07.059Z,10.93
2024-02-14T09:23:35.015Z,11.00
2024-02-14T09:26:03.260Z,11.08
2024-02-14T09:28:30.695Z,11.16
2024-02-14T09:30:57.871Z,11.22
2024-02-14T09:33:24.946Z,11.29
2024-02-14T09:35:54.089Z,11.35
2024-02-14T09:38:21.340Z,11.41
2024-02-14T09:40:48.473Z,11.48
2024-02-14T09:43:24.357Z,11.56
2024-02-14T09:45:53.504Z,11.65
2024-02-14T09:48:22.268Z,11.74
2024-02-14T09:50:50.316Z,11.84
2024-02-14T09:53:18.316Z,11.92
2024-02-14T09:55:47.443Z,11.98
2024-02-14T09:58:16.411Z,12.06
2024-02-14T10:00:51.712Z,12.13
2024-02-14T10:03:19.607Z,12.20
2024-02-14T10:05:46.538Z,12.30
2024-02-14T10:08:13.627Z,12.38
2024-02-14T10:10:40.623Z,12.43
2024-02-14T10:13:08.351Z,12.47
2024-02-14T10:15:36.764Z,12.53
2024-02-14T10:18:04.699Z,12.59
2024-02-14T10:20:33.638Z,12.65
2024-02-14T10:23:07.261Z,12.70
2024-02-14T10:25:36.203Z,12.76
2024-02-14T10:28:09.887Z,12.80
2024-02-14T10:30:39.533Z,12.81
2024-02-14T10:33:17.086Z,12.83
2024-02-14T10:35:51.933Z,12.88
2024-02-14T10:38:21.518Z,12.92
2024-02-14T10:40:49.993Z,12.96
2024-02-14T10:43:17.070Z,13.02
2024-02-14T10:45:44.252Z,13.05
2024-02-14T10:48:13.502Z,13.10
2024-02-14T10:50:42.782Z,13.14
2024-02-14T10:53:15.635Z,13.21
2024-02-14T10:55:48.819Z,13.28
2024-02-14T10:58:17.852Z,13.34
2024-02-14T11:00:47.510Z,13.40
2024-02-14T11:03:16.639Z,13.47
2024-02-14T11:05:47.800Z,13.56
2024-02-14T11:08:16.489Z,13.64
2024-02-14T11:10:43.777Z,13.71
2024-02-14T11:13:16.887Z,13.78
2024-02-14T11:15:47.970Z,13.85
2024-02-14T11:18:14.883Z,13.91
2024-02-14T11:20:43.664Z,13.98
2024-02-14T11:23:12.812Z,14.05
2024-02-14T11:25:39.906Z,14.10
2024-02-14T11:28:18.554Z,14.16
2024-02-14T11:30:45.448Z,14.22
2024-02-14T11:33:16.038Z,14.27
2024-02-14T11:35:43.792Z,14.31
2024-02-14T11:38:11.219Z,14.37
2024-02-14T11:40:42.307Z,14.43
2024-02-14T11:43:14.055Z,14.49
2024-02-14T11:45:43.296Z,14.52
2024-02-14T11:48:14.648Z,14.51
2024-02-14T11:50:44.316Z,14.53
2024-02-14T11:53:18.134Z,14.51
2024-02-14T11:55:44.903Z,14.48
2024-02-14T11:58:13.874Z,14.51
2024-02-14T12:00:42.328Z,14.54
2024-02-14T12:03:14.376Z,14.57
2024-02-14T12:05:42.848Z,14.57
2024-02-14T12:08:11.100Z,14.57
2024-02-14T12:10:41.129Z,14.60
2024-02-14T12:13:13.406Z,14.62
2024-02-14T12:15:41.408Z,14.64
2024-02-14T12:18:15.217Z,14.67
2024-02-14T12:20:45.316Z,14.71
2024-02-14T12:23:19.513Z,14.71
2024-02-14T12:25:47.887Z,14.75
2024-02-14T12:28:18.572Z,14.81
2024-02-14T12:30:59.700Z,14.86
2024-02-14T12:33:28.037Z,14.92
2024-02-14T12:35:56.479Z,14.95
2024-02-14T12:38:24.617Z,15.00
2024-02-14T12:40:54.653Z,14.99
2024-02-14T12:43:21.747Z,14.97
2024-02-14T12:45:48.947Z,14.97
2024-02-14T12:48:24.028Z,14.98
2024-02-14T12:50:52.796Z,14.99
2024-02-14T12:53:20.965Z,15.00
2024-02-14T12:55:48.347Z,15.03
2024-02-14T12:58:16.202Z,15.06
2024-02-14T13:00:44.584Z,15.08
2024-02-14T13:03:15.071Z,15.09
2024-02-14T13:05:43.425Z,15.08
2024-02-14T13:08:12.682Z,15.05
2024-02-14T13:10:39.838Z,15.05
2024-02-14T13:13:06.765Z,15.05
2024-02-14T13:15:33.729Z,15.09
2024-02-14T13:18:01.806Z,15.12
2024-02-14T13:20:29.302Z,15.12
2024-02-14T13:22:56.670Z,15.10
2024-02-14T13:25:23.421Z,15.06
2024-02-14T13:27:50.389Z,15.01
2024-02-14T13:30:17.283Z,14.98
2024-02-14T13:32:44.247Z,14.96
2024-02-14T13:35:12.714Z,14.91
2024-02-14T13:37:39.616Z,14.87
2024-02-14T13:40:11.410Z,14.82
2024-02-14T13:42:39.119Z,14.78
2024-02-14T13:45:13.241Z,14.75
2024-02-14T13:47:40.494Z,14.72
2024-02-14T13:50:10.128Z,14.72
2024-02-14T13:52:37.821Z,14.71
2024-02-14T13:55:06.631Z,14.68
2024-02-14T13:57:42.848Z,14.64
2024-02-14T14:00:10.994Z,14.63
2024-02-14T14:02:44.511Z,14.64
2024-02-14T14:05:14.841Z,14.65
2024-02-14T14:07:53.286Z,14.64
2024-02-14T14:10:26.943Z,14.64
2024-02-14T14:12:53.852Z,14.62
2024-02-14T14:15:20.862Z,14.60
2024-02-14T14:17:48.122Z,14.57
2024-02-14T14:20:15.479Z,14.54
2024-02-14T14:22:42.582Z,14.53
2024-02-14T14:25:09.988Z,14.54
2024-02-14T14:27:37.115Z,14.55
2024-02-14T14:30:05.588Z,14.54
2024-02-14T14:32:32.643Z,14.52
2024-02-14T14:34:59.548Z,14.51
2024-02-14T14:37:26.286Z,14.50
2024-02-14T14:39:53.124Z,14.46
2024-02-14T14:42:20.158Z,14.45
2024-02-14T14:44:46.908Z,14.45
2024-02-14T14:47:14.471Z,14.45
2024-02-14T14:49:43.441Z,14.45
2024-02-14T14:52:10.184Z,14.45
2024-02-14T14:54:38.093Z,14.44
2024-02-14T14:57:08.475Z,14.45
2024-02-14T14:59:36.590Z,14.45
2024-02-14T15:02:03.703Z,14.44
2024-02-14T15:04:30.699Z,14.43
2024-02-14T15:06:57.655Z,14.43
2024-02-14T15:09:24.657Z,14.42
2024-02-14T15:11:51.820Z,14.41
2024-02-14T15:14:19.252Z,14.41
2024-02-14T15:16:46.199Z,14.38
2024-02-14T15:19:13.204Z,14.35
2024-02-14T15:21:40.086Z,14.30
2024-02-14T15:24:08.100Z,14.26
2024-02-14T15:26:50.932Z,14.23
2024-02-14T15:29:38.434Z,14.20
2024-02-14T15:32:24.846Z,14.15
2024-02-14T15:34:52.390Z,14.10
2024-02-14T15:37:19.286Z,14.05
2024-02-14T15:39:46.199Z,14.01
2024-02-14T15:42:13.466Z,13.97
2024-02-14T15:44:40.967Z,13.93
2024-02-14T15:47:09.098Z,13.89
2024-02-14T15:49:36.874Z,13.84
2024-02-14T15:52:06.110Z,13.79
2024-02-14T15:54:33.018Z,13.74
2024-02-14T15:57:01.394Z,13.70
2024-02-14T15:59:28.959Z,13.68
2024-02-14T16:01:56.992Z,13.65
2024-02-14T16:04:24.710Z,13.62
2024-02-14T16:06:51.895Z,13.60
2024-02-14T16:09:18.784Z,13.57
2024-02-14T16:11:45.820Z,13.53
2024-02-14T16:14:12.812Z,13.48
2024-02-14T16:16:39.582Z,13.43
2024-02-14T16:19:07.301Z,13.37
2024-02-14T16:21:34.347Z,13.32
2024-02-14T16:24:01.191Z,13.26
2024-02-14T16:26:31.178Z,13.20
2024-02-14T16:28:58.664Z,13.14
2024-02-14T16:31:25.820Z,13.08
2024-02-14T16:33:52.950Z,13.03
2024-02-14T16:36:19.898Z,12.98
2024-02-14T16:38:46.798Z,12.93
2024-02-14T16:41:13.762Z,12.88
2024-02-14T16:43:40.427Z,12.84
2024-02-14T16:46:07.486Z,12.78
2024-02-14T16:48:34.517Z,12.72
2024-02-14T16:51:01.643Z,12.66
2024-02-14T16:53:28.501Z,12.58
2024-02-14T16:55:55.981Z,12.51
2024-02-14T16:58:23.002Z,12.43
2024-02-14T17:00:50.521Z,12.36
2024-02-14T17:03:17.819Z,12.26
2024-02-14T17:05:47.468Z,12.15
2024-02-14T17:08:14.518Z,12.04
2024-02-14T17:10:41.418Z,11.96
2024-02-14T17:13:09.035Z,11.86
2024-02-14T17:15:36.608Z,11.77
2024-02-14T17:18:06.052Z,11.69
2024-02-14T17:20:33.039Z,11.61
2024-02-14T17:23:00.013Z,11.51
2024-02-14T17:25:26.776Z,11.45
2024-02-14T17:27:53.609Z,11.37
2024-02-14T17:30:21.817Z,11.31
2024-02-14T17:32:50.009Z,11.26
2024-02-14T17:35:17.887Z,11.23
2024-02-14T17:37:44.861Z,11.18
2024-02-14T17:40:12.207Z,11.15
2024-02-14T17:42:39.856Z,11.12
2024-02-14T17:45:07.634Z,11.09
2024-02-14T17:47:35.312Z,11.04
2024-02-14T17:50:04.216Z,10.99
2024-02-14T17:52:31.239Z,10.96
2024-02-14T17:54:58.915Z,10.92
2024-02-14T17:57:26.323Z,10.88
2024-02-14T17:59:53.877Z,10.84
2024-02-14T18:02:21.486Z,10.78
2024-02-14T18:04:48.381Z,10.73
2024-02-14T18:07:15.394Z,10.71
2024-02-14T18:09:42.633Z,10.69
2024-02-14T18:12:09.902Z,10.64
2024-02-14T18:14:36.931Z,10.61
2024-02-14T18:17:04.000Z,10.58
2024-02-14T18:19:31.159Z,10.53
2024-02-14T18:21:58.236Z,10.52
2024-02-14T18:24:25.147Z,10.51
2024-02-14T18:26:51.908Z,10.51
2024-02-14T18:29:19.014Z,10.53
2024-02-14T18:31:46.172Z,10.54
2024-02-14T18:34:13.277Z,10.58
2024-02-14T18:36:40.376Z,10.63
2024-02-14T18:39:07.578Z,10.67
2024-02-14T18:41:36.115Z,10.68
2024-02-14T18:44:05.375Z,10.65
2024-02-14T18:46:33.930Z,10.62
2024-02-14T18:49:00.941Z,10.57
2024-02-14T18:51:28.018Z,10.51
2024-02-14T18:53:54.944Z,10.47
2024-02-14T18:56:22.151Z,10.43
2024-02-14T18:58:50.882Z,10.39
2024-02-14T19:01:28.854Z,10.34
2024-02-14T19:03:56.706Z,10.24
2024-02-14T19:06:32.041Z,10.16
2024-02-14T19:08:58.918Z,10.13
2024-02-14T19:11:26.210Z,10.08
2024-02-14T19:13:55.200Z,10.06
2024-02-14T19:16:28.336Z,10.05
2024-02-14T19:19:00.196Z,10.06
2024-02-14T19:21:27.183Z,10.08
2024-02-14T19:23:54.039Z,10.08
2024-02-14T19:26:22.504Z,10.06
2024-02-14T19:28:50.064Z,10.04
2024-02-14T19:31:16.994Z,10.03
2024-02-14T19:33:44.414Z,10.01
2024-02-14T19:36:11.383Z,9.99
2024-02-14T19:38:38.745Z,9.96
2024-02-14T19:41:05.903Z,9.93
2024-02-14T19:43:39.185Z,9.88
2024-02-14T19:46:07.388Z,9.82
2024-02-14T19:48:36.459Z,9.78
2024-02-14T19:51:04.721Z,9.74
2024-02-14T19:53:33.391Z,9.73
2024-02-14T19:56:00.471Z,9.72
2024-02-14T19:58:28.150Z,9.69
2024-02-14T20:00:55.363Z,9.66
2024-02-14T20:03:22.570Z,9.63
2024-02-14T20:05:49.744Z,9.59
2024-02-14T20:08:16.844Z,9.57
2024-02-14T20:10:44.001Z,9.55
2024-02-14T20:13:11.140Z,9.53
2024-02-14T20:15:38.464Z,9.51
2024-02-14T20:18:05.967Z,9.50
2024-02-14T20:20:33.030Z,9.48
2024-02-14T20:23:00.059Z,9.46
2024-02-14T20:25:27.204Z,9.45
2024-02-14T20:27:55.321Z,9.42
2024-02-14T20:30:22.515Z,9.42
2024-02-14T20:32:49.671Z,9.41
2024-02-14T20:35:16.991Z,9.40
2024-02-14T20:37:44.717Z,9.40
2024-02-14T20:40:14.720Z,9.40
2024-02-14T20:42:46.181Z,9.41
2024-02-14T20:45:14.146Z,9.40
2024-02-14T20:47:44.161Z,9.38
2024-02-14T20:50:11.046Z,9.33
2024-02-14T20:52:38.844Z,9.29
2024-02-14T20:55:06.316Z,9.27
2024-02-14T20:57:34.501Z,9.24
2024-02-14T21:00:02.134Z,9.22
2024-02-14T21:02:29.152Z,9.21
2024-02-14T21:04:56.374Z,9.19
2024-02-14T21:07:23.662Z,9.16
2024-02-14T21:09:50.416Z,9.14
2024-02-14T21:12:19.141Z,9.12
2024-02-14T21:14:45.897Z,9.11
2024-02-14T21:17:13.108Z,9.11
2024-02-14T21:19:39.964Z,9.10
2024-02-14T21:22:07.267Z,9.09
2024-02-14T21:24:33.965Z,9.09
2024-02-14T21:27:00.706Z,9.08
2024-02-14T21:29:27.883Z,9.06
2024-02-14T21:31:55.013Z,9.04
2024-02-14T21:34:22.153Z,9.00
2024-02-14T21:36:49.194Z,8.96
2024-02-14T21:39:18.920Z,8.94
2024-02-14T21:41:47.432Z,8.93
2024-02-14T21:44:14.698Z,8.93
2024-02-14T21:46:43.526Z,8.94
2024-02-14T21:49:15.782Z,8.94
2024-02-14T21:51:42.859Z,8.94
2024-02-14T21:54:09.705Z,8.95
2024-02-14T21:56:36.516Z,8.95
2024-02-14T21:59:03.769Z,8.97
2024-02-14T22:01:30.630Z,8.99
2024-02-14T22:03:57.371Z,9.01
2024-02-14T22:06:24.292Z,9.00
2024-02-14T22:26:02.350Z,9.39
2024-02-14T22:28:35.847Z,9.36
2024-02-14T22:31:03.761Z,9.28
2024-02-14T22:33:31.101Z,9.17
2024-02-14T22:35:58.264Z,9.11
2024-02-14T22:38:25.401Z,9.06
2024-02-14T22:40:52.372Z,9.02
2024-02-14T22:43:19.277Z,8.98
2024-02-14T22:45:46.295Z,8.94
2024-02-14T22:48:14.209Z,8.93
2024-02-14T22:50:41.125Z,8.92
2024-02-14T22:53:08.979Z,8.93
2024-02-14T22:55:36.135Z,8.89
2024-02-14T22:58:04.937Z,8.87
2024-02-14T23:00:34.947Z,8.85
2024-02-14T23:03:07.409Z,8.85
2024-02-14T23:05:35.996Z,8.87
2024-02-14T23:08:03.520Z,8.87
2024-02-14T23:10:30.745Z,8.86
2024-02-14T23:12:57.431Z,8.84
2024-02-14T23:15:24.439Z,8.76
2024-02-14T23:17:52.143Z,8.67
2024-02-14T23:20:19.575Z,8.62
2024-02-14T23:22:46.430Z,8.62
2024-02-14T23:25:13.359Z,8.66
2024-02-14T23:27:44.052Z,8.71
2024-02-14T23:30:11.607Z,8.75
2024-02-14T23:32:40.519Z,8.78
2024-02-14T23:35:11.489Z,8.80
2024-02-14T23:37:41.886Z,8.80
2024-02-14T23:40:12.060Z,8.78
2024-02-14T23:42:46.296Z,8.73
2024-02-14T23:45:13.098Z,8.69
2024-02-14T23:47:40.714Z,8.70
2024-02-14T23:50:12.005Z,8.72
2024-02-14T23:52:40.054Z,8.75
2024-02-14T23:55:07.091Z,8.78
2024-02-14T23:57:34.699Z,8.81
